createdAt,value
2019-03-29T00:00:02.420Z,101939.84
2019-03-29T00:02:35.993Z,101939.23
2019-03-29T00:05:06.723Z,101937.80
2019-03-29T00:07:40.045Z,101941.52
2019-03-29T00:10:09.882Z,101947.83
2019-03-29T00:12:40.166Z,101940.71
2019-03-29T00:15:10.528Z,101945.77
2019-03-29T00:17:40.758Z,101948.61
2019-03-29T00:20:11.172Z,101951.04
2019-03-29T00:22:41.423Z,101951.35
2019-03-29T00:25:12.044Z,101947.80
2019-03-29T00:27:42.686Z,101949.41
2019-03-29T00:30:13.653Z,101944.61
2019-03-29T00:32:44.053Z,101942.39
2019-03-29T00:35:14.288Z,101944.92
2019-03-29T00:37:53.543Z,101943.06
2019-03-29T00:40:16.816Z,101939.97
2019-03-29T00:42:47.547Z,101942.02
2019-03-29T00:45:18.992Z,101940.17
2019-03-29T00:47:49.583Z,101936.77
2019-03-29T00:50:19.903Z,101941.81
2019-03-29T00:52:50.190Z,101951.14
2019-03-29T00:55:20.931Z,101946.71
2019-03-29T00:57:51.438Z,101945.73
2019-03-29T01:00:22.019Z,101948.20
2019-03-29T01:02:52.624Z,101946.34
2019-03-29T01:05:22.831Z,101937.59
2019-03-29T01:08:06.701Z,101934.86
2019-03-29T01:10:25.107Z,101940.88
2019-03-29T01:12:55.669Z,101934.80
2019-03-29T01:15:25.959Z,101935.16
2019-03-29T01:17:56.555Z,101940.59
2019-03-29T01:20:28.732Z,101942.13
2019-03-29T01:22:59.046Z,101944.48
2019-03-29T01:25:29.260Z,101935.73
2019-03-29T01:27:59.489Z,101926.14
2019-03-29T01:30:29.708Z,101930.77
2019-03-29T01:32:59.947Z,101931.89
2019-03-29T01:35:30.172Z,101928.74
2019-03-29T01:38:00.762Z,101924.77
2019-03-29T01:40:31.401Z,101935.77
2019-03-29T01:43:02.085Z,101933.95
2019-03-29T01:45:32.718Z,101935.17
2019-03-29T01:48:03.404Z,101938.51
2019-03-29T01:50:34.931Z,101938.86
2019-03-29T01:53:07.119Z,101934.89
2019-03-29T01:55:37.478Z,101937.47
2019-03-29T01:58:08.060Z,101934.78
2019-03-29T02:00:38.390Z,101937.00
2019-03-29T02:03:08.628Z,101931.69
2019-03-29T02:05:38.847Z,101933.27
2019-03-29T02:08:09.114Z,101931.40
2019-03-29T02:10:39.401Z,101930.52
2019-03-29T02:13:09.619Z,101936.59
2019-03-29T02:15:40.277Z,101930.09
2019-03-29T02:18:10.604Z,101923.60
2019-03-29T02:20:40.876Z,101919.73
2019-03-29T02:23:12.247Z,101912.34
2019-03-29T02:25:43.159Z,101911.85
2019-03-29T02:28:14.017Z,101918.72
2019-03-29T02:30:44.655Z,101919.26
2019-03-29T02:33:15.116Z,101918.44
2019-03-29T02:35:45.755Z,101912.86
2019-03-29T02:38:16.434Z,101917.70
2019-03-29T02:40:47.162Z,101914.02
2019-03-29T02:43:17.459Z,101908.47
2019-03-29T02:45:47.712Z,101897.70
2019-03-29T02:48:17.936Z,101904.88
2019-03-29T02:50:48.523Z,101893.92
2019-03-29T02:53:18.902Z,101885.54
2019-03-29T02:55:49.125Z,101881.47
2019-03-29T02:58:19.443Z,101859.21
2019-03-29T03:00:49.939Z,101851.84
2019-03-29T03:03:20.184Z,101849.18
2019-03-29T03:05:50.414Z,101846.10
2019-03-29T03:08:20.627Z,101843.19
2019-03-29T03:10:50.885Z,101848.56
2019-03-29T03:13:21.094Z,101844.81
2019-03-29T03:15:51.314Z,101858.80
2019-03-29T03:18:21.971Z,101857.30
2019-03-29T03:20:52.620Z,101866.05
2019-03-29T03:23:23.463Z,101877.45
2019-03-29T03:25:54.271Z,101873.78
2019-03-29T03:28:24.903Z,101873.28
2019-03-29T03:30:55.225Z,101881.08
2019-03-29T03:33:25.427Z,101890.73
2019-03-29T03:35:55.999Z,101892.80
2019-03-29T03:38:26.310Z,101880.08
2019-03-29T03:40:56.535Z,101879.16
2019-03-29T03:43:27.136Z,101875.13
2019-03-29T03:45:57.567Z,101865.36
2019-03-29T03:48:28.450Z,101863.00
2019-03-29T03:50:59.549Z,101856.34
2019-03-29T03:53:30.821Z,101865.22
2019-03-29T03:56:01.984Z,101880.78
2019-03-29T03:58:34.049Z,101883.41
2019-03-29T04:01:04.644Z,101875.95
2019-03-29T04:03:34.966Z,101871.63
2019-03-29T04:06:05.299Z,101864.25
2019-03-29T04:08:38.088Z,101862.09
2019-03-29T04:11:07.515Z,101858.97
2019-03-29T04:13:37.786Z,101862.75
2019-03-29T04:16:08.374Z,101857.88
2019-03-29T04:18:39.118Z,101860.47
2019-03-29T04:21:09.402Z,101860.01
2019-03-29T04:23:39.812Z,101858.80
2019-03-29T04:26:10.035Z,101860.55
2019-03-29T04:28:40.630Z,101858.01
2019-03-29T04:31:10.912Z,101866.25
2019-03-29T04:33:41.541Z,101868.54
2019-03-29T04:36:13.015Z,101865.55
2019-03-29T04:38:43.281Z,101872.00
2019-03-29T04:41:13.493Z,101864.38
2019-03-29T04:43:44.091Z,101864.42
2019-03-29T04:46:14.380Z,101869.75
2019-03-29T04:48:46.039Z,101870.91
2019-03-29T04:51:16.815Z,101868.44
2019-03-29T04:53:47.129Z,101862.52
2019-03-29T04:56:17.378Z,101867.87
2019-03-29T04:58:50.344Z,101870.66
2019-03-29T05:01:21.007Z,101868.76
2019-03-29T05:03:51.639Z,101871.19
2019-03-29T05:06:21.972Z,101881.85
2019-03-29T05:08:52.560Z,101886.41
2019-03-29T05:11:22.953Z,101886.44
2019-03-29T05:13:53.530Z,101883.97
2019-03-29T05:16:23.851Z,101878.01
2019-03-29T05:18:54.439Z,101880.36
2019-03-29T05:21:24.768Z,101879.03
2019-03-29T05:23:55.385Z,101878.80
2019-03-29T05:26:25.754Z,101880.83
2019-03-29T05:28:56.376Z,101897.96
2019-03-29T05:31:26.672Z,101904.22
2019-03-29T05:33:59.439Z,101917.77
2019-03-29T05:36:31.946Z,101917.42
2019-03-29T05:39:03.977Z,101919.27
2019-03-29T05:41:34.225Z,101910.30
2019-03-29T05:44:04.439Z,101909.10
2019-03-29T05:46:34.735Z,101914.00
2019-03-29T05:49:06.507Z,101910.71
2019-03-29T05:51:37.193Z,101903.92
2019-03-29T05:54:07.526Z,101919.26
2019-03-29T05:56:38.061Z,101913.75
2019-03-29T05:59:08.742Z,101920.33
2019-03-29T06:01:39.030Z,101922.16
2019-03-29T06:04:09.605Z,101923.12
2019-03-29T06:06:40.343Z,101922.78
2019-03-29T06:09:11.005Z,101923.27
2019-03-29T06:11:41.486Z,101924.21
2019-03-29T06:14:13.735Z,101927.76
2019-03-29T06:16:44.069Z,101932.55
2019-03-29T06:19:14.641Z,101931.26
2019-03-29T06:21:45.312Z,101933.45
2019-03-29T06:24:16.045Z,101931.31
2019-03-29T06:26:46.644Z,101936.13
2019-03-29T06:29:17.381Z,101936.58
2019-03-29T06:31:47.682Z,101929.66
2019-03-29T06:34:17.905Z,101935.31
2019-03-29T06:36:51.396Z,101940.52
2019-03-29T06:39:22.728Z,101943.16
2019-03-29T06:41:52.999Z,101949.23
2019-03-29T06:44:23.240Z,101952.30
2019-03-29T06:46:53.489Z,101951.89
2019-03-29T06:49:27.388Z,101938.86
2019-03-29T06:52:00.381Z,101940.62
2019-03-29T06:54:30.609Z,101944.41
2019-03-29T06:57:00.874Z,101933.27
2019-03-29T06:59:31.166Z,101930.01
2019-03-29T07:02:01.864Z,101925.42
2019-03-29T07:04:32.219Z,101924.95
2019-03-29T07:07:03.666Z,101924.50
2019-03-29T07:09:34.320Z,101908.67
2019-03-29T07:12:04.816Z,101912.33
2019-03-29T07:14:35.142Z,101919.01
2019-03-29T07:17:05.375Z,101917.55
2019-03-29T07:19:35.995Z,101908.05
2019-03-29T07:22:06.290Z,101913.16
2019-03-29T07:24:36.539Z,101922.90
2019-03-29T07:27:07.328Z,101897.34
2019-03-29T07:29:38.779Z,101903.96
2019-03-29T07:32:10.488Z,101906.48
2019-03-29T07:34:41.382Z,101912.51
2019-03-29T07:37:12.001Z,101904.58
2019-03-29T07:39:42.363Z,101913.70
2019-03-29T07:42:13.070Z,101924.85
2019-03-29T07:44:43.425Z,101924.56
2019-03-29T07:47:14.155Z,101929.91
2019-03-29T07:49:44.901Z,101926.55
2019-03-29T07:52:15.565Z,101912.16
2019-03-29T07:54:46.254Z,101905.17
2019-03-29T07:57:16.567Z,101906.03
2019-03-29T07:59:47.163Z,101897.76
2019-03-29T08:02:17.542Z,101898.58
2019-03-29T08:04:49.403Z,101901.86
2019-03-29T08:07:27.091Z,101900.51
2019-03-29T08:09:51.576Z,101900.91
2019-03-29T08:12:22.524Z,101903.02
2019-03-29T08:14:53.385Z,101890.02
2019-03-29T08:17:23.778Z,101902.41
2019-03-29T08:20:24.533Z,101899.38
2019-03-29T08:22:26.631Z,101895.75
2019-03-29T08:24:59.200Z,101890.21
2019-03-29T08:27:28.988Z,101885.52
2019-03-29T08:29:59.550Z,101887.63
2019-03-29T08:32:29.840Z,101896.51
2019-03-29T08:35:00.162Z,101887.37
2019-03-29T08:37:32.430Z,101887.45
2019-03-29T08:40:04.619Z,101895.70
2019-03-29T08:42:35.455Z,101888.62
2019-03-29T08:45:08.300Z,101883.23
2019-03-29T08:47:38.607Z,101885.42
2019-03-29T08:50:09.848Z,101878.20
2019-03-29T08:52:40.568Z,101879.12
2019-03-29T08:55:11.045Z,101874.67
2019-03-29T08:57:41.742Z,101875.17
2019-03-29T09:00:15.783Z,101879.17
2019-03-29T09:02:45.088Z,101868.13
2019-03-29T09:05:15.638Z,101869.28
2019-03-29T09:07:45.949Z,101872.40
2019-03-29T09:10:24.497Z,101878.72
2019-03-29T09:12:55.276Z,101880.70
2019-03-29T09:15:25.570Z,101882.15
2019-03-29T09:17:59.648Z,101875.92
2019-03-29T09:20:29.529Z,101877.20
2019-03-29T09:22:59.859Z,101868.48
2019-03-29T09:25:30.158Z,101866.16
2019-03-29T09:28:00.415Z,101864.36
2019-03-29T09:30:31.015Z,101862.55
2019-03-29T09:33:01.245Z,101857.97
2019-03-29T09:35:32.447Z,101862.23
2019-03-29T09:38:03.152Z,101863.48
2019-03-29T09:40:34.255Z,101858.77
2019-03-29T09:43:08.373Z,101859.25
2019-03-29T09:45:36.946Z,101858.96
2019-03-29T09:48:07.700Z,101857.61
2019-03-29T09:50:39.137Z,101852.64
2019-03-29T09:53:09.434Z,101843.73
2019-03-29T09:55:40.032Z,101843.27
2019-03-29T09:58:10.689Z,101840.91
2019-03-29T10:00:41.032Z,101853.07
2019-03-29T10:03:11.286Z,101821.59
2019-03-29T10:05:41.609Z,101831.09
2019-03-29T10:08:11.945Z,101846.87
2019-03-29T10:10:42.180Z,101850.95
2019-03-29T10:13:12.501Z,101849.39
2019-03-29T10:15:42.723Z,101848.39
2019-03-29T10:18:12.964Z,101846.44
2019-03-29T10:20:43.203Z,101847.76
2019-03-29T10:23:13.450Z,101839.44
2019-03-29T10:25:43.693Z,101829.64
2019-03-29T10:28:15.152Z,101827.89
2019-03-29T10:30:47.075Z,101835.89
2019-03-29T10:33:19.188Z,101839.58
2019-03-29T10:35:52.512Z,101842.27
2019-03-29T10:38:22.845Z,101841.96
2019-03-29T10:40:54.296Z,101834.30
2019-03-29T10:43:25.776Z,101813.48
2019-03-29T10:45:56.210Z,101817.77
2019-03-29T10:48:26.444Z,101811.11
2019-03-29T10:50:56.685Z,101805.41
2019-03-29T10:53:28.897Z,101799.64
2019-03-29T10:55:59.524Z,101816.81
2019-03-29T10:58:30.100Z,101815.39
2019-03-29T11:01:00.412Z,101818.93
2019-03-29T11:03:31.035Z,101805.55
2019-03-29T11:06:01.345Z,101803.74
2019-03-29T11:08:31.599Z,101807.95
2019-03-29T11:11:01.824Z,101806.22
2019-03-29T11:13:32.255Z,101797.44
2019-03-29T11:16:02.529Z,101807.97
2019-03-29T11:18:32.749Z,101806.38
2019-03-29T11:21:02.966Z,101793.23
2019-03-29T11:23:35.990Z,101800.13
2019-03-29T11:26:06.281Z,101795.42
2019-03-29T11:28:36.568Z,101792.40
2019-03-29T11:31:08.553Z,101789.23
2019-03-29T11:33:39.191Z,101782.41
2019-03-29T11:36:09.515Z,101783.55
2019-03-29T11:38:39.723Z,101783.91
2019-03-29T11:41:10.084Z,101784.86
2019-03-29T11:43:42.360Z,101782.85
2019-03-29T11:46:12.649Z,101780.02
2019-03-29T11:48:42.981Z,101786.88
2019-03-29T11:51:19.598Z,101786.50
2019-03-29T11:53:45.601Z,101787.08
2019-03-29T11:56:16.287Z,101776.61
2019-03-29T11:58:46.642Z,101773.20
2019-03-29T12:01:17.338Z,101773.37
2019-03-29T12:03:47.692Z,101782.91
2019-03-29T12:06:18.371Z,101765.91
2019-03-29T12:08:48.733Z,101774.73
2019-03-29T12:11:19.671Z,101772.81
2019-03-29T12:13:50.014Z,101763.52
2019-03-29T12:16:20.312Z,101756.84
2019-03-29T12:18:50.632Z,101759.20
2019-03-29T12:21:20.856Z,101755.31
2019-03-29T12:23:51.086Z,101755.15
2019-03-29T12:26:21.329Z,101744.38
2019-03-29T12:28:51.963Z,101738.91
2019-03-29T12:31:22.299Z,101750.69
2019-03-29T12:33:52.515Z,101737.33
2019-03-29T12:36:22.751Z,101741.39
2019-03-29T12:38:56.458Z,101737.84
2019-03-29T12:41:26.757Z,101738.84
2019-03-29T12:43:57.424Z,101731.47
2019-03-29T12:46:28.060Z,101729.84
2019-03-29T12:48:58.712Z,101724.24
2019-03-29T12:51:29.610Z,101728.52
2019-03-29T12:54:00.253Z,101717.61
2019-03-29T12:56:30.545Z,101711.42
2019-03-29T12:59:01.129Z,101718.16
2019-03-29T13:01:39.427Z,101711.75
2019-03-29T13:04:05.387Z,101702.02
2019-03-29T13:06:36.144Z,101694.19
2019-03-29T13:09:08.701Z,101690.59
2019-03-29T13:11:41.625Z,101692.45
2019-03-29T13:14:12.691Z,101692.31
2019-03-29T13:16:51.354Z,101687.25
2019-03-29T13:19:28.641Z,101690.87
2019-03-29T13:21:59.143Z,101687.45
2019-03-29T13:24:29.434Z,101677.02
2019-03-29T13:26:59.823Z,101682.50
2019-03-29T13:29:30.131Z,101676.30
2019-03-29T13:32:00.717Z,101671.94
2019-03-29T13:34:31.778Z,101672.44
2019-03-29T13:37:05.844Z,101669.45
2019-03-29T13:39:36.478Z,101669.20
2019-03-29T13:42:08.225Z,101662.79
2019-03-29T13:44:38.514Z,101649.50
2019-03-29T13:47:08.738Z,101657.63
2019-03-29T13:49:38.957Z,101663.69
2019-03-29T13:52:09.237Z,101656.16
2019-03-29T13:54:39.866Z,101657.66
2019-03-29T13:57:10.280Z,101648.61
2019-03-29T13:59:40.864Z,101649.52
2019-03-29T14:02:11.178Z,101656.84
2019-03-29T14:04:41.464Z,101664.00
2019-03-29T14:07:12.086Z,101642.69
2019-03-29T14:09:44.261Z,101652.16
2019-03-29T14:12:14.592Z,101650.18
2019-03-29T14:14:45.229Z,101648.36
2019-03-29T14:17:15.476Z,101639.76
2019-03-29T14:19:46.137Z,101635.30
2019-03-29T14:22:16.812Z,101637.37
2019-03-29T14:24:47.132Z,101637.45
2019-03-29T14:27:17.433Z,101633.23
2019-03-29T14:29:47.710Z,101629.70
2019-03-29T14:32:18.295Z,101631.33
2019-03-29T14:34:48.605Z,101623.70
2019-03-29T14:37:18.867Z,101624.67
2019-03-29T14:39:49.235Z,101624.18
2019-03-29T14:42:19.556Z,101628.75
2019-03-29T14:44:52.572Z,101627.09
2019-03-29T14:47:22.124Z,101630.20
2019-03-29T14:49:52.416Z,101629.14
2019-03-29T14:52:24.995Z,101630.07
2019-03-29T14:54:55.265Z,101621.94
2019-03-29T14:57:25.521Z,101630.59
2019-03-29T14:59:55.778Z,101622.98
2019-03-29T15:02:26.006Z,101617.28
2019-03-29T15:04:56.231Z,101611.30
2019-03-29T15:07:26.459Z,101619.71
2019-03-29T15:10:00.584Z,101612.35
2019-03-29T15:12:32.420Z,101612.80
2019-03-29T15:15:06.252Z,101614.67
2019-03-29T15:17:35.780Z,101605.88
2019-03-29T15:20:08.434Z,101611.95
2019-03-29T15:22:38.759Z,101611.95
2019-03-29T15:25:08.978Z,101614.17
2019-03-29T15:27:39.240Z,101607.02
2019-03-29T15:30:10.299Z,101612.84
2019-03-29T15:32:40.551Z,101609.87
2019-03-29T15:35:11.334Z,101612.92
2019-03-29T15:37:41.667Z,101612.61
2019-03-29T15:40:12.417Z,101599.47
2019-03-29T15:42:43.197Z,101608.11
2019-03-29T15:45:20.815Z,101605.63
2019-03-29T15:47:47.526Z,101606.53
2019-03-29T15:50:17.760Z,101606.66
2019-03-29T15:52:48.034Z,101601.97
2019-03-29T15:55:18.296Z,101606.34
2019-03-29T15:57:48.515Z,101609.00
2019-03-29T16:00:19.983Z,101610.41
2019-03-29T16:02:50.356Z,101615.34
2019-03-29T16:05:21.609Z,101607.69
2019-03-29T16:07:51.842Z,101609.57
2019-03-29T16:10:23.273Z,101604.18
2019-03-29T16:12:53.666Z,101608.69
2019-03-29T16:15:34.197Z,101604.87
2019-03-29T16:17:55.845Z,101605.67
2019-03-29T16:20:26.435Z,101611.76
2019-03-29T16:22:57.847Z,101603.34
2019-03-29T16:25:28.519Z,101606.58
2019-03-29T16:27:59.535Z,101606.61
2019-03-29T16:30:31.138Z,101607.22
2019-03-29T16:33:01.761Z,101608.11
2019-03-29T16:35:32.049Z,101607.44
2019-03-29T16:38:02.373Z,101605.28
2019-03-29T16:40:33.762Z,101602.30
2019-03-29T16:43:04.701Z,101588.35
2019-03-29T16:45:47.329Z,101597.00
2019-03-29T16:48:07.513Z,101598.89
2019-03-29T16:50:37.746Z,101598.20
2019-03-29T16:53:08.023Z,101595.16
2019-03-29T16:55:38.584Z,101588.66
2019-03-29T16:58:10.016Z,101573.20
2019-03-29T17:00:40.736Z,101574.95
2019-03-29T17:03:13.776Z,101580.28
2019-03-29T17:05:44.069Z,101580.36
2019-03-29T17:08:16.298Z,101566.32
2019-03-29T17:10:47.000Z,101561.58
2019-03-29T17:13:19.233Z,101561.25
2019-03-29T17:16:01.186Z,101561.65
2019-03-29T17:18:29.167Z,101559.10
2019-03-29T17:20:54.345Z,101563.89
2019-03-29T17:23:24.722Z,101564.81
2019-03-29T17:25:55.344Z,101563.45
2019-03-29T17:28:27.481Z,101560.81
2019-03-29T17:31:00.416Z,101562.12
2019-03-29T17:33:32.151Z,101555.59
2019-03-29T17:36:02.384Z,101554.78
2019-03-29T17:38:33.037Z,101559.20
2019-03-29T17:41:03.804Z,101561.98
2019-03-29T17:43:34.535Z,101565.79
2019-03-29T17:46:15.667Z,101555.44
2019-03-29T17:48:36.919Z,101548.45
2019-03-29T17:51:07.177Z,101549.23
2019-03-29T17:53:37.757Z,101552.91
2019-03-29T17:56:08.527Z,101553.00
2019-03-29T17:58:38.827Z,101556.95
2019-03-29T18:01:09.048Z,101549.92
2019-03-29T18:03:39.373Z,101556.28
2019-03-29T18:06:09.593Z,101552.47
2019-03-29T18:08:43.028Z,101549.50
2019-03-29T18:11:13.374Z,101560.48
2019-03-29T18:13:45.101Z,101557.06
2019-03-29T18:16:29.560Z,101561.05
2019-03-29T18:18:48.161Z,101559.66
2019-03-29T18:21:19.275Z,101561.92
2019-03-29T18:23:49.612Z,101558.44
2019-03-29T18:26:19.854Z,101559.38
2019-03-29T18:28:50.076Z,101561.16
2019-03-29T18:31:20.593Z,101560.23
2019-03-29T18:33:51.232Z,101549.89
2019-03-29T18:36:22.038Z,101553.39
2019-03-29T18:38:53.490Z,101556.55
2019-03-29T18:41:23.802Z,101556.20
2019-03-29T18:43:54.050Z,101559.74
2019-03-29T18:46:24.448Z,101560.25
2019-03-29T18:48:54.678Z,101552.80
2019-03-29T18:51:25.250Z,101556.36
2019-03-29T18:53:56.443Z,101557.78
2019-03-29T18:56:26.676Z,101553.41
2019-03-29T18:58:56.931Z,101556.65
2019-03-29T19:01:27.144Z,101547.65
2019-03-29T19:03:57.371Z,101552.41
2019-03-29T19:06:27.571Z,101555.09
2019-03-29T19:08:57.825Z,101548.64
2019-03-29T19:11:30.210Z,101545.66
2019-03-29T19:14:00.501Z,101541.38
2019-03-29T19:16:30.776Z,101543.20
2019-03-29T19:19:09.819Z,101547.01
2019-03-29T19:21:33.572Z,101537.14
2019-03-29T19:24:03.862Z,101535.89
2019-03-29T19:26:34.470Z,101536.85
2019-03-29T19:29:04.870Z,101538.20
2019-03-29T19:31:36.647Z,101540.83
2019-03-29T19:34:07.276Z,101533.92
2019-03-29T19:36:37.807Z,101528.31
2019-03-29T19:39:08.812Z,101534.03
2019-03-29T19:41:39.290Z,101534.96
2019-03-29T19:44:12.833Z,101531.09
2019-03-29T19:46:41.486Z,101531.61
2019-03-29T19:49:12.187Z,101534.67
2019-03-29T19:51:42.789Z,101539.50
2019-03-29T19:54:13.449Z,101535.19
2019-03-29T19:56:43.814Z,101526.55
2019-03-29T19:59:14.043Z,101532.65
2019-03-29T20:01:44.268Z,101535.70
2019-03-29T20:04:15.821Z,101530.96
2019-03-29T20:06:46.145Z,101526.66
2019-03-29T20:09:16.427Z,101532.33
2019-03-29T20:11:46.648Z,101537.16
2019-03-29T20:14:16.899Z,101531.95
2019-03-29T20:16:47.402Z,101533.67
2019-03-29T20:19:20.070Z,101528.48
2019-03-29T20:21:49.796Z,101531.51
2019-03-29T20:24:20.022Z,101529.41
2019-03-29T20:26:50.311Z,101530.32
2019-03-29T20:29:20.884Z,101535.99
2019-03-29T20:31:51.283Z,101532.09
2019-03-29T20:34:21.856Z,101521.70
2019-03-29T20:36:52.174Z,101523.46
2019-03-29T20:39:22.835Z,101523.90
2019-03-29T20:41:53.137Z,101522.58
2019-03-29T20:44:23.418Z,101524.33
2019-03-29T20:46:53.706Z,101524.74
2019-03-29T20:49:23.972Z,101519.07
2019-03-29T20:51:54.266Z,101519.09
2019-03-29T20:54:24.862Z,101516.05
2019-03-29T20:56:55.151Z,101518.67
2019-03-29T20:59:25.415Z,101518.25
2019-03-29T21:01:55.628Z,101516.94
2019-03-29T21:04:27.512Z,101512.17
2019-03-29T21:06:58.111Z,101518.26
2019-03-29T21:09:28.393Z,101517.83
2019-03-29T21:11:58.648Z,101510.02
2019-03-29T21:14:28.936Z,101510.07
2019-03-29T21:16:59.189Z,101509.20
2019-03-29T21:19:29.404Z,101506.61
2019-03-29T21:22:00.928Z,101513.56
2019-03-29T21:24:31.271Z,101512.69
2019-03-29T21:27:01.495Z,101515.28
2019-03-29T21:29:31.806Z,101510.89
2019-03-29T21:32:02.042Z,101519.62
2019-03-29T21:34:32.362Z,101513.13
2019-03-29T21:37:02.971Z,101518.27
2019-03-29T21:39:33.278Z,101513.10
2019-03-29T21:42:03.509Z,101516.17
2019-03-29T21:44:33.790Z,101511.41
2019-03-29T21:47:04.115Z,101514.02
2019-03-29T21:49:34.682Z,101510.55
2019-03-29T21:52:05.008Z,101509.69
2019-03-29T21:54:35.221Z,101510.56
2019-03-29T21:57:05.490Z,101501.00
2019-03-29T21:59:36.079Z,101502.76
2019-03-29T22:02:09.871Z,101502.77
2019-03-29T22:04:44.337Z,101506.23
2019-03-29T22:07:13.872Z,101497.55
2019-03-29T22:09:44.091Z,101501.87
2019-03-29T22:12:14.362Z,101496.66
2019-03-29T22:14:44.624Z,101494.92
2019-03-29T22:17:17.365Z,101494.92
2019-03-29T22:19:47.608Z,101491.88
2019-03-29T22:22:17.876Z,101493.18
2019-03-29T22:24:48.192Z,101481.88
2019-03-29T22:27:19.489Z,101487.52
2019-03-29T22:29:50.059Z,101482.31
2019-03-29T22:32:20.527Z,101479.28
2019-03-29T22:34:50.770Z,101472.77
2019-03-29T22:37:20.991Z,101469.73
2019-03-29T22:39:51.558Z,101470.19
2019-03-29T22:42:21.887Z,101465.84
2019-03-29T22:44:52.129Z,101461.95
2019-03-29T22:47:22.749Z,101466.73
2019-03-29T22:49:53.048Z,101463.27
2019-03-29T22:52:23.306Z,101463.70
2019-03-29T22:54:54.156Z,101455.95
2019-03-29T22:57:24.478Z,101451.62
2019-03-29T22:59:54.688Z,101455.97
2019-03-29T23:02:25.465Z,101457.27
2019-03-29T23:04:55.919Z,101459.00
2019-03-29T23:07:26.158Z,101454.21
2019-03-29T23:09:56.442Z,101449.81
2019-03-29T23:12:27.704Z,101454.13
2019-03-29T23:14:57.932Z,101454.14
2019-03-29T23:17:28.528Z,101452.40
2019-03-29T23:19:58.816Z,101455.00
2019-03-29T23:22:29.418Z,101455.87
2019-03-29T23:24:59.686Z,101449.36
2019-03-29T23:27:30.014Z,101446.77
2019-03-29T23:30:00.260Z,101440.72
2019-03-29T23:32:30.909Z,101440.70
2019-03-29T23:35:01.217Z,101445.91
2019-03-29T23:37:32.261Z,101441.98
2019-03-29T23:40:02.685Z,101444.56
2019-03-29T23:42:32.928Z,101440.67
2019-03-29T23:45:04.678Z,101440.22
2019-03-29T23:47:34.963Z,101439.35
2019-03-29T23:50:08.201Z,101440.24
2019-03-29T23:52:38.425Z,101445.91
2019-03-29T23:55:09.003Z,101442.00
2019-03-29T23:57:39.580Z,101443.30
